createdAt,value
2018-05-11T00:00:07.385Z,47.05
2018-05-11T00:00:39.359Z,46.86
2018-05-11T00:01:11.385Z,47.05
2018-05-11T00:01:43.427Z,47.14
2018-05-11T00:02:15.507Z,46.95
2018-05-11T00:02:47.645Z,46.86
2018-05-11T00:03:19.685Z,46.95
2018-05-11T00:03:51.723Z,47.14
2018-05-11T00:04:23.796Z,46.95
2018-05-11T00:04:55.801Z,47.03
2018-05-11T00:05:27.844Z,46.95
2018-05-11T00:05:59.892Z,47.05
2018-05-11T00:06:31.930Z,47.03
2018-05-11T00:07:03.982Z,46.95
2018-05-11T00:07:36.010Z,46.95
2018-05-11T00:08:08.015Z,47.05
2018-05-11T00:08:40.011Z,46.86
2018-05-11T00:09:12.159Z,46.93
2018-05-11T00:09:44.302Z,46.95
2018-05-11T00:10:16.289Z,47.14
2018-05-11T00:10:48.337Z,47.05
2018-05-11T00:11:20.337Z,47.05
2018-05-11T00:11:52.920Z,47.05
2018-05-11T00:12:25.809Z,47.05
2018-05-11T00:12:57.831Z,47.14
2018-05-11T00:13:29.859Z,47.03
2018-05-11T00:14:01.894Z,47.03
2018-05-11T00:14:33.912Z,46.93
2018-05-11T00:15:05.982Z,47.03
2018-05-11T00:15:38.034Z,47.12
2018-05-11T00:16:10.064Z,47.05
2018-05-11T00:16:42.877Z,47.14
2018-05-11T00:17:14.944Z,47.03
2018-05-11T00:17:46.934Z,47.05
2018-05-11T00:18:18.917Z,47.03
2018-05-11T00:18:50.953Z,47.14
2018-05-11T00:19:22.996Z,47.03
2018-05-11T00:19:55.021Z,47.05
2018-05-11T00:20:27.064Z,47.03
2018-05-11T00:20:59.100Z,47.12
2018-05-11T00:21:31.210Z,47.12
2018-05-11T00:22:03.213Z,47.12
2018-05-11T00:22:35.240Z,47.03
2018-05-11T00:23:08.203Z,47.14
2018-05-11T00:23:40.251Z,47.22
2018-05-11T00:24:12.274Z,47.12
2018-05-11T00:24:44.322Z,47.12
2018-05-11T00:25:16.350Z,47.03
2018-05-11T00:25:48.388Z,47.12
2018-05-11T00:26:20.449Z,47.12
2018-05-11T00:26:52.467Z,47.12
2018-05-11T00:27:24.505Z,47.03
2018-05-11T00:27:56.522Z,47.12
2018-05-11T00:28:28.660Z,47.12
2018-05-11T00:29:00.691Z,47.12
2018-05-11T00:29:32.695Z,47.22
2018-05-11T00:30:04.748Z,47.12
2018-05-11T00:30:36.811Z,47.22
2018-05-11T00:31:08.842Z,47.12
2018-05-11T00:31:40.859Z,47.12
2018-05-11T00:32:12.925Z,47.03
2018-05-11T00:32:44.984Z,47.22
2018-05-11T00:33:17.001Z,47.12
2018-05-11T00:33:49.023Z,47.22
2018-05-11T00:34:21.085Z,47.03
2018-05-11T00:34:53.107Z,47.12
2018-05-11T00:35:25.143Z,47.03
2018-05-11T00:35:57.298Z,47.03
2018-05-11T00:36:29.308Z,47.03
2018-05-11T00:37:01.357Z,47.12
2018-05-11T00:37:34.240Z,47.31
2018-05-11T00:38:06.264Z,47.03
2018-05-11T00:38:38.318Z,47.03
2018-05-11T00:39:10.358Z,46.83
2018-05-11T00:39:42.375Z,47.12
2018-05-11T00:40:14.404Z,47.12
2018-05-11T00:40:46.509Z,47.12
2018-05-11T00:41:18.542Z,47.12
2018-05-11T00:41:50.512Z,47.12
2018-05-11T00:42:22.580Z,47.22
2018-05-11T00:42:54.672Z,47.12
2018-05-11T00:43:26.689Z,47.12
2018-05-11T00:43:58.689Z,46.93
2018-05-11T00:44:30.692Z,47.03
2018-05-11T00:45:02.677Z,46.93
2018-05-11T00:45:34.724Z,47.12
2018-05-11T00:46:06.897Z,47.22
2018-05-11T00:46:38.944Z,46.93
2018-05-11T00:47:10.957Z,46.93
2018-05-11T00:47:43.018Z,47.03
2018-05-11T00:48:15.055Z,47.12
2018-05-11T00:48:47.075Z,47.03
2018-05-11T00:49:19.082Z,47.22
2018-05-11T00:49:51.833Z,47.22
2018-05-11T00:50:23.840Z,47.22
2018-05-11T00:50:55.903Z,47.03
2018-05-11T00:51:28.130Z,47.03
2018-05-11T00:52:00.124Z,47.31
2018-05-11T00:52:32.158Z,47.31
2018-05-11T00:53:04.199Z,47.12
2018-05-11T00:53:36.213Z,47.03
2018-05-11T00:54:08.223Z,47.31
2018-05-11T00:54:40.259Z,47.12
2018-05-11T00:55:12.264Z,47.12
2018-05-11T00:55:44.296Z,47.03
2018-05-11T00:56:16.323Z,47.22
2018-05-11T00:56:48.343Z,47.12
2018-05-11T00:57:20.406Z,47.03
2018-05-11T00:57:52.444Z,47.22
2018-05-11T00:58:24.438Z,47.31
2018-05-11T00:58:56.465Z,47.22
2018-05-11T00:59:28.591Z,47.03
2018-05-11T01:00:00.609Z,47.03
2018-05-11T01:00:32.640Z,47.12
2018-05-11T01:01:04.735Z,47.12
2018-05-11T01:01:36.747Z,47.12
2018-05-11T01:02:08.805Z,47.22
2018-05-11T01:02:40.830Z,47.31
2018-05-11T01:03:12.858Z,47.12
2018-05-11T01:03:44.917Z,47.12
2018-05-11T01:04:16.969Z,47.03
2018-05-11T01:04:49.022Z,47.41
2018-05-11T01:05:21.048Z,47.12
2018-05-11T01:05:53.082Z,47.31
2018-05-11T01:06:25.118Z,47.12
2018-05-11T01:06:57.167Z,47.22
2018-05-11T01:07:29.184Z,47.12
2018-05-11T01:08:01.223Z,47.22
2018-05-11T01:08:33.330Z,47.31
2018-05-11T01:09:05.349Z,47.22
2018-05-11T01:09:37.370Z,47.31
2018-05-11T01:10:10.053Z,47.22
2018-05-11T01:10:42.134Z,47.22
2018-05-11T01:11:14.184Z,47.41
2018-05-11T01:11:46.194Z,47.41
2018-05-11T01:12:18.277Z,47.22
2018-05-11T01:12:50.326Z,47.22
2018-05-11T01:13:22.448Z,47.22
2018-05-11T01:13:54.481Z,47.12
2018-05-11T01:14:26.533Z,47.41
2018-05-11T01:14:58.584Z,47.41
2018-05-11T01:15:30.624Z,47.31
2018-05-11T01:16:02.652Z,47.31
2018-05-11T01:16:34.715Z,47.22
2018-05-11T01:17:06.696Z,47.31
2018-05-11T01:17:38.710Z,47.31
2018-05-11T01:18:10.753Z,47.22
2018-05-11T01:18:42.879Z,47.31
2018-05-11T01:19:14.918Z,47.31
2018-05-11T01:19:46.952Z,47.41
2018-05-11T01:20:18.985Z,47.31
2018-05-11T01:20:51.025Z,47.41
2018-05-11T01:21:23.048Z,47.41
2018-05-11T01:21:55.091Z,47.22
2018-05-11T01:22:27.152Z,47.31
2018-05-11T01:22:59.184Z,47.31
2018-05-11T01:23:31.218Z,47.31
2018-05-11T01:24:03.230Z,47.31
2018-05-11T01:24:35.285Z,47.31
2018-05-11T01:25:07.320Z,47.22
2018-05-11T01:25:39.343Z,47.41
2018-05-11T01:26:11.517Z,47.31
2018-05-11T01:26:43.548Z,47.31
2018-05-11T01:27:15.574Z,47.31
2018-05-11T01:27:47.600Z,47.41
2018-05-11T01:28:19.755Z,47.31
2018-05-11T01:28:51.804Z,47.31
2018-05-11T01:29:23.833Z,47.31
2018-05-11T01:29:55.848Z,47.31
2018-05-11T01:30:27.861Z,47.31
2018-05-11T01:30:59.909Z,47.31
2018-05-11T01:31:31.917Z,47.41
2018-05-11T01:32:03.964Z,47.12
2018-05-11T01:32:36.005Z,47.41
2018-05-11T01:33:08.036Z,47.22
2018-05-11T01:33:40.109Z,47.41
2018-05-11T01:34:12.132Z,47.31
2018-05-11T01:34:44.142Z,47.31
2018-05-11T01:35:16.163Z,47.22
2018-05-11T01:35:48.175Z,47.31
2018-05-11T01:36:20.241Z,47.31
2018-05-11T01:36:52.347Z,47.22
2018-05-11T01:37:24.368Z,47.22
2018-05-11T01:37:56.373Z,47.22
2018-05-11T01:38:28.405Z,47.22
2018-05-11T01:39:00.523Z,47.31
2018-05-11T01:39:33.387Z,47.22
2018-05-11T01:40:05.389Z,47.31
2018-05-11T01:40:37.412Z,47.41
2018-05-11T01:41:09.449Z,47.41
2018-05-11T01:41:41.549Z,47.51
2018-05-11T01:42:13.664Z,47.22
2018-05-11T01:42:45.786Z,47.22
2018-05-11T01:43:17.780Z,47.31
2018-05-11T01:43:49.815Z,47.51
2018-05-11T01:44:21.806Z,47.22
2018-05-11T01:44:53.795Z,47.41
2018-05-11T01:45:25.840Z,47.31
2018-05-11T01:45:57.906Z,47.22
2018-05-11T01:46:29.960Z,47.31
2018-05-11T01:47:01.981Z,47.22
2018-05-11T01:47:34.973Z,47.31
2018-05-11T01:48:07.002Z,47.41
2018-05-11T01:48:39.035Z,47.51
2018-05-11T01:49:11.031Z,47.41
2018-05-11T01:49:43.061Z,47.51
2018-05-11T01:50:15.157Z,47.12
2018-05-11T01:50:47.204Z,47.51
2018-05-11T01:51:19.750Z,47.41
2018-05-11T01:51:51.766Z,47.22
2018-05-11T01:52:23.767Z,47.31
2018-05-11T01:52:55.818Z,47.31
2018-05-11T01:53:27.839Z,47.51
2018-05-11T01:53:59.927Z,47.51
2018-05-11T01:54:31.915Z,47.51
2018-05-11T01:55:03.946Z,47.31
2018-05-11T01:55:35.988Z,47.41
2018-05-11T01:56:08.110Z,47.31
2018-05-11T01:56:40.193Z,47.31
2018-05-11T01:57:12.204Z,47.22
2018-05-11T01:57:44.271Z,47.41
2018-05-11T01:58:17.076Z,47.31
2018-05-11T01:58:49.126Z,47.12
2018-05-11T01:59:21.140Z,47.41
2018-05-11T01:59:53.170Z,47.31
2018-05-11T02:00:25.199Z,47.41
2018-05-11T02:00:57.216Z,47.31
2018-05-11T02:01:29.334Z,47.22
2018-05-11T02:02:01.301Z,47.31
2018-05-11T02:02:33.349Z,47.31
2018-05-11T02:03:05.526Z,47.31
2018-05-11T02:03:37.562Z,47.51
2018-05-11T02:04:09.602Z,47.51
2018-05-11T02:04:41.639Z,47.31
2018-05-11T02:05:13.710Z,47.31
2018-05-11T02:05:45.733Z,47.31
2018-05-11T02:06:17.752Z,47.41
2018-05-11T02:06:49.790Z,47.41
2018-05-11T02:07:21.809Z,47.51
2018-05-11T02:07:53.832Z,47.41
2018-05-11T02:08:26.008Z,47.41
2018-05-11T02:08:58.199Z,47.51
2018-05-11T02:09:30.275Z,47.41
2018-05-11T02:10:02.327Z,47.51
2018-05-11T02:10:34.406Z,47.51
2018-05-11T02:11:06.435Z,47.31
2018-05-11T02:11:38.495Z,47.6
2018-05-11T02:12:10.704Z,47.41
2018-05-11T02:12:42.756Z,47.51
2018-05-11T02:13:14.783Z,47.51
2018-05-11T02:13:46.781Z,47.51
2018-05-11T02:14:18.882Z,47.22
2018-05-11T02:14:50.902Z,47.6
2018-05-11T02:15:22.935Z,47.6
2018-05-11T02:15:54.979Z,47.41
2018-05-11T02:16:27.004Z,47.31
2018-05-11T02:16:59.004Z,47.51
2018-05-11T02:17:31.049Z,47.7
2018-05-11T02:18:03.133Z,47.51
2018-05-11T02:18:35.291Z,47.41
2018-05-11T02:19:07.264Z,47.39
2018-05-11T02:19:39.272Z,47.6
2018-05-11T02:20:11.281Z,47.41
2018-05-11T02:20:43.333Z,47.51
2018-05-11T02:21:15.337Z,47.41
2018-05-11T02:21:47.346Z,47.58
2018-05-11T02:22:19.405Z,47.6
2018-05-11T02:22:51.429Z,47.41
2018-05-11T02:23:23.434Z,47.58
2018-05-11T02:23:55.456Z,47.51
2018-05-11T02:24:27.596Z,47.41
2018-05-11T02:24:59.660Z,47.58
2018-05-11T02:25:31.705Z,47.51
2018-05-11T02:26:03.884Z,47.49
2018-05-11T02:26:35.782Z,47.49
2018-05-11T02:27:07.829Z,47.6
2018-05-11T02:27:39.853Z,47.6
2018-05-11T02:28:11.875Z,47.51
2018-05-11T02:28:43.917Z,47.6
2018-05-11T02:29:15.916Z,47.7
2018-05-11T02:29:47.984Z,47.7
2018-05-11T02:30:20.168Z,47.67
2018-05-11T02:30:52.265Z,47.7
2018-05-11T02:31:24.317Z,47.7
2018-05-11T02:31:56.332Z,47.58
2018-05-11T02:32:28.380Z,47.49
2018-05-11T02:33:00.467Z,47.49
2018-05-11T02:33:32.457Z,47.51
2018-05-11T02:34:04.444Z,47.8
2018-05-11T02:34:36.478Z,47.7
2018-05-11T02:35:08.510Z,47.49
2018-05-11T02:35:40.550Z,47.6
2018-05-11T02:36:13.541Z,47.6
2018-05-11T02:36:45.588Z,47.58
2018-05-11T02:37:17.617Z,47.58
2018-05-11T02:37:49.643Z,47.58
2018-05-11T02:38:21.680Z,47.67
2018-05-11T02:38:53.718Z,47.49
2018-05-11T02:39:25.739Z,47.58
2018-05-11T02:39:57.736Z,47.58
2018-05-11T02:40:29.748Z,47.67
2018-05-11T02:41:01.810Z,47.58
2018-05-11T02:41:33.852Z,47.67
2018-05-11T02:42:05.891Z,47.49
2018-05-11T02:42:37.919Z,47.67
2018-05-11T02:43:09.956Z,47.58
2018-05-11T02:43:41.978Z,47.49
2018-05-11T02:44:13.996Z,47.58
2018-05-11T02:44:46.053Z,47.49
2018-05-11T02:45:18.102Z,47.58
2018-05-11T02:45:50.130Z,47.58
2018-05-11T02:46:22.136Z,47.58
2018-05-11T02:46:54.243Z,47.49
2018-05-11T02:47:26.277Z,47.58
2018-05-11T02:47:58.320Z,47.49
2018-05-11T02:48:30.473Z,47.58
2018-05-11T02:49:02.592Z,47.58
2018-05-11T02:49:34.606Z,47.49
2018-05-11T02:50:06.619Z,47.49
2018-05-11T02:50:38.663Z,47.49
2018-05-11T02:51:10.729Z,47.58
2018-05-11T02:51:42.769Z,47.49
2018-05-11T02:52:14.774Z,47.39
2018-05-11T02:52:46.787Z,47.67
2018-05-11T02:53:18.813Z,47.58
2018-05-11T02:53:50.845Z,47.58
2018-05-11T02:54:22.991Z,47.49
2018-05-11T02:54:55.009Z,47.67
2018-05-11T02:55:27.044Z,47.49
2018-05-11T02:55:59.087Z,47.49
2018-05-11T02:56:31.121Z,47.49
2018-05-11T02:57:03.175Z,47.58
2018-05-11T02:57:35.230Z,47.58
2018-05-11T02:58:07.327Z,47.58
2018-05-11T02:58:40.199Z,47.58
2018-05-11T02:59:12.283Z,47.67
2018-05-11T02:59:44.427Z,47.58
2018-05-11T03:00:16.456Z,47.58
2018-05-11T03:00:48.500Z,47.58
2018-05-11T03:01:20.544Z,47.58
2018-05-11T03:01:52.573Z,47.49
2018-05-11T03:02:24.589Z,47.67
2018-05-11T03:02:56.631Z,47.67
2018-05-11T03:03:28.667Z,47.67
2018-05-11T03:04:00.689Z,47.49
2018-05-11T03:04:32.715Z,47.77
2018-05-11T03:05:04.737Z,47.77
2018-05-11T03:05:36.788Z,47.49
2018-05-11T03:06:08.796Z,47.77
2018-05-11T03:06:40.796Z,47.67
2018-05-11T03:07:12.838Z,47.67
2018-05-11T03:07:44.862Z,47.67
2018-05-11T03:08:16.888Z,47.49
2018-05-11T03:08:49.399Z,47.67
2018-05-11T03:09:21.441Z,47.67
2018-05-11T03:09:53.462Z,47.67
2018-05-11T03:10:25.560Z,47.67
2018-05-11T03:10:57.560Z,47.67
2018-05-11T03:11:29.624Z,47.67
2018-05-11T03:12:01.675Z,47.67
2018-05-11T03:12:33.704Z,47.87
2018-05-11T03:13:05.725Z,47.77
2018-05-11T03:13:37.761Z,47.67
2018-05-11T03:14:09.797Z,47.67
2018-05-11T03:14:41.798Z,47.67
2018-05-11T03:15:13.825Z,47.87
2018-05-11T03:15:45.850Z,47.67
2018-05-11T03:16:17.878Z,47.67
2018-05-11T03:16:50.001Z,47.67
2018-05-11T03:17:22.017Z,47.67
2018-05-11T03:17:54.071Z,47.77
2018-05-11T03:18:26.180Z,47.67
2018-05-11T03:18:58.566Z,47.67
2018-05-11T03:19:30.599Z,47.58
2018-05-11T03:20:02.583Z,47.87
2018-05-11T03:20:34.696Z,47.77
2018-05-11T03:21:06.751Z,47.77
2018-05-11T03:21:38.808Z,47.77
2018-05-11T03:22:10.824Z,47.67
2018-05-11T03:22:42.891Z,47.67
2018-05-11T03:23:14.887Z,47.77
2018-05-11T03:23:46.926Z,47.77
2018-05-11T03:24:19.123Z,47.58
2018-05-11T03:24:51.113Z,47.77
2018-05-11T03:25:23.147Z,47.77
2018-05-11T03:25:55.172Z,47.77
2018-05-11T03:26:27.190Z,47.77
2018-05-11T03:26:59.239Z,47.58
2018-05-11T03:27:31.251Z,47.87
2018-05-11T03:28:03.270Z,47.77
2018-05-11T03:28:35.299Z,47.67
2018-05-11T03:29:07.300Z,47.67
2018-05-11T03:29:39.314Z,47.67
2018-05-11T03:30:11.353Z,47.67
2018-05-11T03:30:43.441Z,47.67
2018-05-11T03:31:15.510Z,47.67
2018-05-11T03:31:47.546Z,47.77
2018-05-11T03:32:19.569Z,47.67
2018-05-11T03:32:51.608Z,47.67
2018-05-11T03:33:23.638Z,47.77
2018-05-11T03:33:55.675Z,47.67
2018-05-11T03:34:27.702Z,47.77
2018-05-11T03:34:59.760Z,47.67
2018-05-11T03:35:31.792Z,47.67
2018-05-11T03:36:03.884Z,47.77
2018-05-11T03:36:35.921Z,47.67
2018-05-11T03:37:07.911Z,47.77
2018-05-11T03:37:39.937Z,47.77
2018-05-11T03:38:11.973Z,47.67
2018-05-11T03:38:43.949Z,47.77
2018-05-11T03:39:15.966Z,47.77
2018-05-11T03:39:48.022Z,47.67
2018-05-11T03:40:20.022Z,47.77
2018-05-11T03:40:52.075Z,47.67
2018-05-11T03:41:24.071Z,47.67
2018-05-11T03:41:56.105Z,47.77
2018-05-11T03:42:28.148Z,47.77
2018-05-11T03:43:00.308Z,47.77
2018-05-11T03:43:32.338Z,47.87
2018-05-11T03:44:04.390Z,47.77
2018-05-11T03:44:36.410Z,47.87
2018-05-11T03:45:08.466Z,47.77
2018-05-11T03:45:40.516Z,47.77
2018-05-11T03:46:12.553Z,47.87
2018-05-11T03:46:44.588Z,47.77
2018-05-11T03:47:16.591Z,47.77
2018-05-11T03:47:48.610Z,47.67
2018-05-11T03:48:20.678Z,47.87
2018-05-11T03:48:52.713Z,47.87
2018-05-11T03:49:24.752Z,47.87
2018-05-11T03:49:56.803Z,47.77
2018-05-11T03:50:28.843Z,47.87
2018-05-11T03:51:00.912Z,47.67
2018-05-11T03:51:33.072Z,47.87
2018-05-11T03:52:05.073Z,47.87
2018-05-11T03:52:37.101Z,47.87
2018-05-11T03:53:09.122Z,47.87
2018-05-11T03:53:41.151Z,47.77
2018-05-11T03:54:13.201Z,47.77
2018-05-11T03:54:45.225Z,47.87
2018-05-11T03:55:17.258Z,47.77
2018-05-11T03:55:49.286Z,47.77
2018-05-11T03:56:21.349Z,47.67
2018-05-11T03:56:53.398Z,47.77
2018-05-11T03:57:25.407Z,47.77
2018-05-11T03:57:57.435Z,47.77
2018-05-11T03:58:29.446Z,47.87
2018-05-11T03:59:01.457Z,47.77
2018-05-11T03:59:33.535Z,47.77
2018-05-11T04:00:05.636Z,47.87
2018-05-11T04:00:37.709Z,47.75
2018-05-11T04:01:09.745Z,47.77
2018-05-11T04:01:41.902Z,47.87
2018-05-11T04:02:13.938Z,47.87
2018-05-11T04:02:45.955Z,47.77
2018-05-11T04:03:17.983Z,47.87
2018-05-11T04:03:50.030Z,47.77
2018-05-11T04:04:22.065Z,47.77
2018-05-11T04:04:54.068Z,47.77
2018-05-11T04:05:26.105Z,47.77
2018-05-11T04:05:58.159Z,47.87
2018-05-11T04:06:30.163Z,47.77
2018-05-11T04:07:02.205Z,47.87
2018-05-11T04:07:34.264Z,47.77
2018-05-11T04:08:06.307Z,47.87
2018-05-11T04:08:38.364Z,47.77
2018-05-11T04:09:10.383Z,47.77
2018-05-11T04:09:42.523Z,47.77
2018-05-11T04:10:14.563Z,47.87
2018-05-11T04:10:46.619Z,47.77
2018-05-11T04:11:18.660Z,47.87
2018-05-11T04:11:50.659Z,47.97
2018-05-11T04:12:22.668Z,47.77
2018-05-11T04:12:54.716Z,47.77
2018-05-11T04:13:26.820Z,47.77
2018-05-11T04:13:58.843Z,47.77
2018-05-11T04:14:30.900Z,47.75
2018-05-11T04:15:02.917Z,47.97
2018-05-11T04:15:34.963Z,47.97
2018-05-11T04:16:06.990Z,47.77
2018-05-11T04:16:39.068Z,47.87
2018-05-11T04:17:11.185Z,47.87
2018-05-11T04:17:43.183Z,47.87
2018-05-11T04:18:15.213Z,47.77
2018-05-11T04:18:47.252Z,47.77
2018-05-11T04:19:19.255Z,47.77
2018-05-11T04:19:51.216Z,47.87
2018-05-11T04:20:23.267Z,47.87
2018-05-11T04:20:55.301Z,47.87
2018-05-11T04:21:27.325Z,47.77
2018-05-11T04:21:59.466Z,47.87
2018-05-11T04:22:31.505Z,47.87
2018-05-11T04:23:03.560Z,47.87
2018-05-11T04:23:35.610Z,47.77
2018-05-11T04:24:07.619Z,47.77
2018-05-11T04:24:39.673Z,47.77
2018-05-11T04:25:11.728Z,47.97
2018-05-11T04:25:43.772Z,47.75
2018-05-11T04:26:15.806Z,47.77
2018-05-11T04:26:47.857Z,47.85
2018-05-11T04:27:19.882Z,47.87
2018-05-11T04:27:51.949Z,47.77
2018-05-11T04:28:23.982Z,47.87
2018-05-11T04:28:55.986Z,47.65
2018-05-11T04:29:28.097Z,47.87
2018-05-11T04:30:03.964Z,47.85
2018-05-11T04:30:36.000Z,47.87
2018-05-11T04:31:08.164Z,47.77
2018-05-11T04:31:40.183Z,47.87
2018-05-11T04:32:12.172Z,47.87
2018-05-11T04:32:44.199Z,47.77
2018-05-11T04:33:16.324Z,47.85
2018-05-11T04:33:48.343Z,47.87
2018-05-11T04:34:20.368Z,47.77
2018-05-11T04:34:52.416Z,47.77
2018-05-11T04:35:24.504Z,47.87
2018-05-11T04:35:56.553Z,47.67
2018-05-11T04:36:28.621Z,47.77
2018-05-11T04:37:00.680Z,47.77
2018-05-11T04:37:32.637Z,47.77
2018-05-11T04:38:04.642Z,47.87
2018-05-11T04:38:36.692Z,47.87
2018-05-11T04:39:08.841Z,47.77
2018-05-11T04:39:40.956Z,47.77
2018-05-11T04:40:12.974Z,47.77
2018-05-11T04:40:45.012Z,47.87
2018-05-11T04:41:17.058Z,47.77
2018-05-11T04:41:49.129Z,47.77
2018-05-11T04:42:21.150Z,47.77
2018-05-11T04:42:53.198Z,47.97
2018-05-11T04:43:25.202Z,47.77
2018-05-11T04:43:57.228Z,47.87
2018-05-11T04:44:29.331Z,47.77
2018-05-11T04:45:01.315Z,47.87
2018-05-11T04:45:33.343Z,47.77
2018-05-11T04:46:05.395Z,47.67
2018-05-11T04:46:37.434Z,47.77
2018-05-11T04:47:09.467Z,47.77
2018-05-11T04:47:41.495Z,47.97
2018-05-11T04:48:14.339Z,47.77
2018-05-11T04:48:46.391Z,47.77
2018-05-11T04:49:18.372Z,47.67
2018-05-11T04:49:50.408Z,47.77
2018-05-11T04:50:22.463Z,47.67
2018-05-11T04:50:54.567Z,47.97
2018-05-11T04:51:27.342Z,47.77
2018-05-11T04:51:59.392Z,47.97
2018-05-11T04:52:31.437Z,47.87
2018-05-11T04:53:03.494Z,47.87
2018-05-11T04:53:35.496Z,47.77
2018-05-11T04:54:07.499Z,47.87
2018-05-11T04:54:39.511Z,47.87
2018-05-11T04:55:11.559Z,47.87
2018-05-11T04:55:44.260Z,47.87
2018-05-11T04:56:17.080Z,47.87
2018-05-11T04:56:49.160Z,47.87
2018-05-11T04:57:21.209Z,47.97
2018-05-11T04:57:53.267Z,47.87
2018-05-11T04:58:25.286Z,47.87
2018-05-11T04:58:57.325Z,47.87
2018-05-11T04:59:29.351Z,47.77
2018-05-11T05:00:01.383Z,47.87
2018-05-11T05:00:33.407Z,47.77
2018-05-11T05:01:05.481Z,47.77
2018-05-11T05:01:37.496Z,47.77
2018-05-11T05:02:09.507Z,47.87
2018-05-11T05:02:41.646Z,47.87
2018-05-11T05:03:13.693Z,47.77
2018-05-11T05:03:45.720Z,47.87
2018-05-11T05:04:17.781Z,47.67
2018-05-11T05:04:49.849Z,47.77
2018-05-11T05:05:21.985Z,47.77
2018-05-11T05:05:54.009Z,47.77
2018-05-11T05:06:26.025Z,47.77
2018-05-11T05:06:58.118Z,47.77
2018-05-11T05:07:30.114Z,47.77
2018-05-11T05:08:02.194Z,47.77
2018-05-11T05:08:34.228Z,47.77
2018-05-11T05:09:06.264Z,47.77
2018-05-11T05:09:38.313Z,47.87
2018-05-11T05:10:10.326Z,47.97
2018-05-11T05:10:42.394Z,47.77
2018-05-11T05:11:14.412Z,47.87
2018-05-11T05:11:46.444Z,47.87
2018-05-11T05:12:18.469Z,47.87
2018-05-11T05:12:50.621Z,47.77
2018-05-11T05:13:22.637Z,47.67
2018-05-11T05:13:54.682Z,47.77
2018-05-11T05:14:26.723Z,47.67
2018-05-11T05:14:58.754Z,47.77
2018-05-11T05:15:30.784Z,47.67
2018-05-11T05:16:02.818Z,47.77
2018-05-11T05:16:34.873Z,47.77
2018-05-11T05:17:06.869Z,47.77
2018-05-11T05:17:38.926Z,47.67
2018-05-11T05:18:11.045Z,47.67
2018-05-11T05:18:43.061Z,47.77
2018-05-11T05:19:15.211Z,47.58
2018-05-11T05:19:47.188Z,47.67
2018-05-11T05:20:19.209Z,47.77
2018-05-11T05:20:51.231Z,47.77
2018-05-11T05:21:23.281Z,47.67
2018-05-11T05:21:55.324Z,47.67
2018-05-11T05:22:27.369Z,47.7
2018-05-11T05:22:59.393Z,47.77
2018-05-11T05:23:31.451Z,47.67
2018-05-11T05:24:03.485Z,47.6
2018-05-11T05:24:35.554Z,47.8
2018-05-11T05:25:07.592Z,47.77
2018-05-11T05:25:39.556Z,47.77
2018-05-11T05:26:11.577Z,47.8
2018-05-11T05:26:43.621Z,47.6
2018-05-11T05:27:15.755Z,47.58
2018-05-11T05:27:47.761Z,47.67
2018-05-11T05:28:19.814Z,47.49
2018-05-11T05:28:51.848Z,47.7
2018-05-11T05:29:23.902Z,47.8
2018-05-11T05:29:56.038Z,47.7
2018-05-11T05:30:28.070Z,47.8
2018-05-11T05:31:00.176Z,47.7
2018-05-11T05:31:32.207Z,47.7
2018-05-11T05:32:04.262Z,47.6
2018-05-11T05:32:36.341Z,47.8
2018-05-11T05:33:08.432Z,47.6
2018-05-11T05:33:40.542Z,47.7
2018-05-11T05:34:12.577Z,47.6
2018-05-11T05:34:44.589Z,47.7
2018-05-11T05:35:16.677Z,47.51
2018-05-11T05:35:48.757Z,47.51
2018-05-11T05:36:20.791Z,47.51
2018-05-11T05:36:52.810Z,47.7
2018-05-11T05:37:24.831Z,47.6
2018-05-11T05:37:56.823Z,47.7
2018-05-11T05:38:28.861Z,47.7
2018-05-11T05:39:00.910Z,47.51
2018-05-11T05:39:33.555Z,47.6
2018-05-11T05:40:05.595Z,47.7
2018-05-11T05:40:37.607Z,47.6
2018-05-11T05:41:09.640Z,47.7
2018-05-11T05:41:41.686Z,47.7
2018-05-11T05:42:13.729Z,47.6
2018-05-11T05:42:45.746Z,47.41
2018-05-11T05:43:17.776Z,47.6
2018-05-11T05:43:49.851Z,47.6
2018-05-11T05:44:21.954Z,47.6
2018-05-11T05:44:54.048Z,47.6
2018-05-11T05:45:26.067Z,47.51
2018-05-11T05:45:58.148Z,47.51
2018-05-11T05:46:30.155Z,47.6
2018-05-11T05:47:02.194Z,47.51
2018-05-11T05:47:34.225Z,47.6
2018-05-11T05:48:06.283Z,47.7
2018-05-11T05:48:38.420Z,47.6
2018-05-11T05:49:10.495Z,47.41
2018-05-11T05:49:42.443Z,47.6
2018-05-11T05:50:14.463Z,47.41
2018-05-11T05:50:46.516Z,47.6
2018-05-11T05:51:18.537Z,47.51
2018-05-11T05:51:50.574Z,47.31
2018-05-11T05:52:22.615Z,47.51
2018-05-11T05:52:54.727Z,47.6
2018-05-11T05:53:26.738Z,47.6
2018-05-11T05:53:58.767Z,47.51
2018-05-11T05:54:30.951Z,47.8
2018-05-11T05:55:03.058Z,47.6
2018-05-11T05:55:35.099Z,47.51
2018-05-11T05:56:07.094Z,47.51
2018-05-11T05:56:39.142Z,47.51
2018-05-11T05:57:11.264Z,47.51
2018-05-11T05:57:43.295Z,47.31
2018-05-11T05:58:15.326Z,47.41
2018-05-11T05:58:47.358Z,47.41
2018-05-11T05:59:19.397Z,47.41
2018-05-11T05:59:51.507Z,47.34
2018-05-11T06:00:23.512Z,47.41
2018-05-11T06:00:55.534Z,47.34
2018-05-11T06:01:27.539Z,47.34
2018-05-11T06:01:59.551Z,47.34
2018-05-11T06:02:31.696Z,47.63
2018-05-11T06:03:03.777Z,47.53
2018-05-11T06:03:35.795Z,47.34
2018-05-11T06:04:07.901Z,47.34
2018-05-11T06:04:40.031Z,47.24
2018-05-11T06:05:12.240Z,47.24
2018-05-11T06:05:44.297Z,47.34
2018-05-11T06:06:16.331Z,47.34
2018-05-11T06:06:48.353Z,47.34
2018-05-11T06:07:20.411Z,47.44
2018-05-11T06:07:52.415Z,47.44
2018-05-11T06:08:24.470Z,47.34
2018-05-11T06:08:56.530Z,47.34
2018-05-11T06:09:28.541Z,47.24
2018-05-11T06:10:00.564Z,47.34
2018-05-11T06:10:32.623Z,47.34
2018-05-11T06:11:04.741Z,47.34
2018-05-11T06:11:36.731Z,47.44
2018-05-11T06:12:08.718Z,47.24
2018-05-11T06:12:40.744Z,47.24
2018-05-11T06:13:12.732Z,47.34
2018-05-11T06:13:44.738Z,47.44
2018-05-11T06:14:16.860Z,47.44
2018-05-11T06:14:48.861Z,47.44
2018-05-11T06:15:20.902Z,47.24
2018-05-11T06:15:52.946Z,47.34
2018-05-11T06:16:25.095Z,47.34
2018-05-11T06:16:57.207Z,47.44
2018-05-11T06:17:29.228Z,47.36
2018-05-11T06:18:01.261Z,47.34
2018-05-11T06:18:33.407Z,47.45
2018-05-11T06:19:05.555Z,47.17
2018-05-11T06:19:37.577Z,47.17
2018-05-11T06:20:09.627Z,47.36
2018-05-11T06:20:41.764Z,47.27
2018-05-11T06:21:13.818Z,47.07
2018-05-11T06:21:45.957Z,47.27
2018-05-11T06:22:18.010Z,47.17
2018-05-11T06:22:50.044Z,47.17
2018-05-11T06:23:22.086Z,47.17
2018-05-11T06:23:54.130Z,47.36
2018-05-11T06:24:26.150Z,47.36
2018-05-11T06:24:58.304Z,47.17
2018-05-11T06:25:30.231Z,46.88
2018-05-11T06:26:02.252Z,47.07
2018-05-11T06:26:34.299Z,47.17
2018-05-11T06:27:06.364Z,47.17
2018-05-11T06:27:38.350Z,47.17
2018-05-11T06:28:10.378Z,47.27
2018-05-11T06:28:42.377Z,47.17
2018-05-11T06:29:14.408Z,47.36
2018-05-11T06:29:46.533Z,47.36
2018-05-11T06:30:19.124Z,47.36
2018-05-11T06:30:51.185Z,47.27
2018-05-11T06:31:23.811Z,47.36
2018-05-11T06:31:55.875Z,46.97
2018-05-11T06:32:27.892Z,47.27
2018-05-11T06:33:00.099Z,46.97
2018-05-11T06:33:32.184Z,47.07
2018-05-11T06:34:04.227Z,47.27
2018-05-11T06:34:36.531Z,47.17
2018-05-11T06:35:08.424Z,47.07
2018-05-11T06:35:40.524Z,47.17
2018-05-11T06:36:12.579Z,47.17
2018-05-11T06:36:44.592Z,46.97
2018-05-11T06:37:16.593Z,47.17
2018-05-11T06:37:48.638Z,47.07
2018-05-11T06:38:20.725Z,47.07
2018-05-11T06:38:52.783Z,47.17
2018-05-11T06:39:24.797Z,47.17
2018-05-11T06:39:56.877Z,47.27
2018-05-11T06:40:29.017Z,47.17
2018-05-11T06:41:01.213Z,47.07
2018-05-11T06:41:33.384Z,47.09
2018-05-11T06:42:05.460Z,47.09
2018-05-11T06:42:37.465Z,47.17
2018-05-11T06:43:09.553Z,47.19
2018-05-11T06:43:41.675Z,47.09
2018-05-11T06:44:13.725Z,47.09
2018-05-11T06:44:45.757Z,47.19
2018-05-11T06:45:17.734Z,47.07
2018-05-11T06:45:49.769Z,47.09
2018-05-11T06:46:21.777Z,47.09
2018-05-11T06:46:54.007Z,47.09
2018-05-11T06:47:26.043Z,46.9
2018-05-11T06:47:58.054Z,47
2018-05-11T06:48:30.070Z,47
2018-05-11T06:49:02.049Z,47.09
2018-05-11T06:49:34.104Z,46.9
2018-05-11T06:50:06.161Z,47
2018-05-11T06:50:38.255Z,47
2018-05-11T06:51:10.251Z,46.61
2018-05-11T06:51:42.317Z,47.09
2018-05-11T06:52:14.305Z,47
2018-05-11T06:52:46.335Z,47
2018-05-11T06:53:18.382Z,47.19
2018-05-11T06:53:50.389Z,47
2018-05-11T06:54:22.372Z,47